Time;durP1;ratioP1;P1;durP2;ratioP2;P2;SDS_P1;SDS_P2;PMS_P1;PMS_P2;Temp;Humidity;BMP_temperature;BMP_pressure;BME280_temperature;BME280_humidity;BME280_pressure;Samples;Min_cycle;Max_cycle;Signal;HPM_P1;HPM_P2
2023/06/11 00:01:17;;;;;;;;;;;17.50;99.90;;;;;;5074081;28;19914;-84
2023/06/11 00:03:46;;;;;;;;;;;17.40;99.90;;;;;;5057547;28;20276;-84
2023/06/11 00:06:20;;;;;;;;;;;17.40;99.90;;;;;;5073527;28;19908;-84
2023/06/11 00:08:46;;;;;;;;;;;17.40;99.90;;;;;;5073544;28;20307;-84
2023/06/11 00:11:12;;;;;;;;;;;17.40;99.90;;;;;;5073902;28;20038;-84
2023/06/11 00:13:38;;;;;;;;;;;17.40;99.90;;;;;;5073716;28;20666;-85
2023/06/11 00:16:03;;;;;;;;;;;17.40;99.90;;;;;;5073088;28;19909;-84
2023/06/11 00:18:29;;;;;;;;;;;17.40;99.90;;;;;;5074814;28;19981;-85
2023/06/11 00:20:56;;;;;;;;;;;17.30;99.90;;;;;;5057211;28;19908;-85
2023/06/11 00:23:22;;;;;;;;;;;17.30;99.90;;;;;;5073926;28;19912;-85
2023/06/11 00:25:48;;;;;;;;;;;17.30;99.90;;;;;;5057237;28;19908;-84
2023/06/11 00:28:13;;;;;;;;;;;17.20;99.90;;;;;;5074018;28;19908;-85
2023/06/11 00:31:01;;;;;;;;;;;17.20;99.90;;;;;;5072854;28;20287;-84
2023/06/11 00:33:27;;;;;;;;;;;17.20;99.90;;;;;;5073461;28;19908;-85
2023/06/11 00:35:53;;;;;;;;;;;17.10;99.90;;;;;;5073390;28;19908;-85
2023/06/11 00:38:51;;;;;;;;;;;17.10;99.90;;;;;;5073099;28;20421;-84
2023/06/11 00:41:16;;;;;;;;;;;17.00;99.90;;;;;;5089776;28;20282;-84
2023/06/11 00:43:42;;;;;;;;;;;17.10;99.90;;;;;;5073462;28;19912;-85
2023/06/11 00:46:11;;;;;;;;;;;17.10;99.90;;;;;;5072745;28;19916;-84
2023/06/11 00:48:40;;;;;;;;;;;17.00;99.90;;;;;;5055988;28;19914;-84
2023/06/11 00:51:05;;;;;;;;;;;16.90;99.90;;;;;;5055999;28;19962;-84
2023/06/11 00:53:31;;;;;;;;;;;16.90;99.90;;;;;;5056181;28;19951;-84
2023/06/11 00:55:57;;;;;;;;;;;17.00;99.90;;;;;;5072660;28;19970;-84
2023/06/11 00:58:23;;;;;;;;;;;16.90;99.90;;;;;;5055792;28;20264;-85
2023/06/11 01:00:52;;;;;;;;;;;16.90;99.90;;;;;;5056066;28;19920;-84
2023/06/11 01:03:22;;;;;;;;;;;16.90;99.90;;;;;;5072016;28;19912;-84
2023/06/11 01:05:49;;;;;;;;;;;16.80;99.90;;;;;;5055385;28;20015;-85
2023/06/11 01:08:17;;;;;;;;;;;16.80;99.90;;;;;;5072177;28;20371;-84
2023/06/11 01:10:47;;;;;;;;;;;16.90;99.90;;;;;;5071883;28;19939;-84
2023/06/11 01:13:12;;;;;;;;;;;16.90;99.90;;;;;;5072054;28;19909;-84
2023/06/11 01:15:38;;;;;;;;;;;16.90;99.90;;;;;;5072128;28;20322;-84
2023/06/11 01:18:08;;;;;;;;;;;16.80;99.90;;;;;;5072165;28;19912;-84
2023/06/11 01:20:38;;;;;;;;;;;16.80;99.90;;;;;;5083181;28;20025;-84
2023/06/11 01:23:16;;;;;;;;;;;16.70;99.90;;;;;;5072072;28;19916;-84
2023/06/11 01:25:54;;;;;;;;;;;16.60;99.90;;;;;;5055931;28;20314;-84
2023/06/11 01:28:22;;;;;;;;;;;16.60;99.90;;;;;;5072406;28;20326;-84
2023/06/11 01:30:51;;;;;;;;;;;16.60;99.90;;;;;;5055181;28;20450;-84
2023/06/11 01:33:18;;;;;;;;;;;16.50;99.90;;;;;;5072023;28;19912;-84
2023/06/11 01:35:58;;;;;;;;;;;16.50;99.90;;;;;;5055779;28;19908;-84
2023/06/11 01:38:34;;;;;;;;;;;16.50;99.90;;;;;;5072422;28;19948;-84
2023/06/11 01:41:00;;;;;;;;;;;16.50;99.90;;;;;;5072006;28;19908;-84
2023/06/11 01:43:28;;;;;;;;;;;16.40;99.90;;;;;;5054741;28;19961;-84
2023/06/11 01:45:55;;;;;;;;;;;16.30;99.90;;;;;;5072081;28;19923;-84
2023/06/11 01:48:21;;;;;;;;;;;16.20;99.90;;;;;;5071337;28;19915;-84
2023/06/11 01:50:46;;;;;;;;;;;16.30;99.90;;;;;;5054686;28;20300;-85
2023/06/11 01:53:12;;;;;;;;;;;16.20;99.90;;;;;;5054856;28;19930;-84
2023/06/11 01:55:40;;;;;;;;;;;16.20;99.90;;;;;;5071195;28;19913;-84
2023/06/11 01:58:05;;;;;;;;;;;16.20;99.90;;;;;;5071649;28;19912;-84
2023/06/11 02:00:31;;;;;;;;;;;16.20;99.90;;;;;;5072095;28;20498;-84
2023/06/11 02:02:56;;;;;;;;;;;16.10;99.90;;;;;;5071838;28;19962;-85
2023/06/11 02:05:22;;;;;;;;;;;16.10;99.90;;;;;;5072167;28;19912;-84
2023/06/11 02:11:16;;;;;;;;;;;16.00;99.90;;;;;;5072758;28;19924;-84
2023/06/11 02:13:45;;;;;;;;;;;16.00;99.90;;;;;;5072251;28;19916;-84
2023/06/11 02:16:10;;;;;;;;;;;15.90;99.90;;;;;;5054851;28;19908;-84
2023/06/11 02:18:36;;;;;;;;;;;15.80;99.90;;;;;;5055035;28;19913;-85
2023/06/11 02:21:02;;;;;;;;;;;15.80;99.90;;;;;;5055346;28;19909;-84
2023/06/11 02:23:28;;;;;;;;;;;15.80;99.90;;;;;;5071865;28;19942;-84
2023/06/11 02:25:54;;;;;;;;;;;15.70;99.90;;;;;;5055219;28;19954;-85
2023/06/11 02:28:20;;;;;;;;;;;15.70;99.90;;;;;;5071868;28;19920;-84
2023/06/11 02:30:45;;;;;;;;;;;15.70;99.90;;;;;;5050256;28;20306;-84
2023/06/11 02:33:11;;;;;;;;;;;15.70;99.90;;;;;;5083991;28;20008;-84
2023/06/11 02:35:37;;;;;;;;;;;15.70;99.90;;;;;;5054477;28;19912;-84
2023/06/11 02:38:02;;;;;;;;;;;15.60;99.90;;;;;;5065090;28;20007;-84
2023/06/11 02:40:28;;;;;;;;;;;15.70;99.90;;;;;;5078506;28;19914;-84
2023/06/11 02:42:53;;;;;;;;;;;15.70;99.90;;;;;;5054484;28;19908;-85
2023/06/11 02:45:19;;;;;;;;;;;15.70;99.90;;;;;;5070227;28;20332;-85
2023/06/11 02:47:45;;;;;;;;;;;15.60;99.90;;;;;;5070959;28;20272;-84
2023/06/11 02:50:10;;;;;;;;;;;15.60;99.90;;;;;;5054484;28;20364;-85
2023/06/11 02:52:36;;;;;;;;;;;15.60;99.90;;;;;;5054589;28;19999;-84
2023/06/11 02:55:02;;;;;;;;;;;15.60;99.90;;;;;;5071592;28;19957;-85
2023/06/11 02:57:28;;;;;;;;;;;15.50;99.90;;;;;;5072078;28;19920;-84
2023/06/11 02:59:54;;;;;;;;;;;15.50;99.90;;;;;;5071977;28;20413;-83
2023/06/11 03:02:20;;;;;;;;;;;15.50;99.90;;;;;;5071149;28;19908;-85
2023/06/11 03:04:45;;;;;;;;;;;15.40;99.90;;;;;;5054439;28;19958;-84
2023/06/11 03:07:12;;;;;;;;;;;15.40;99.90;;;;;;5071337;28;20427;-84
2023/06/11 03:09:38;;;;;;;;;;;15.40;99.90;;;;;;5057654;28;19947;-84
2023/06/11 03:12:05;;;;;;;;;;;15.40;99.90;;;;;;5058102;28;20007;-84
2023/06/11 03:14:31;;;;;;;;;;;15.40;99.90;;;;;;5075128;28;19916;-84
2023/06/11 03:16:57;;;;;;;;;;;15.50;99.90;;;;;;5058406;28;19917;-84
2023/06/11 03:19:23;;;;;;;;;;;15.50;99.90;;;;;;5056679;28;19912;-82
2023/06/11 03:21:51;;;;;;;;;;;15.50;99.90;;;;;;5058045;28;19908;-82
2023/06/11 03:24:17;;;;;;;;;;;15.40;99.90;;;;;;5057565;28;19916;-82
2023/06/11 03:26:43;;;;;;;;;;;15.40;99.90;;;;;;5057904;28;19916;-83
2023/06/11 03:29:09;;;;;;;;;;;15.40;99.90;;;;;;5074381;28;19908;-82
2023/06/11 03:31:43;;;;;;;;;;;15.30;99.90;;;;;;5074095;28;19951;-82
2023/06/11 03:34:09;;;;;;;;;;;15.30;99.90;;;;;;5057203;28;19945;-82
2023/06/11 03:36:36;;;;;;;;;;;15.30;99.90;;;;;;5074236;28;19909;-82
2023/06/11 03:39:04;;;;;;;;;;;15.30;99.90;;;;;;5090952;28;20256;-82
2023/06/11 03:41:30;;;;;;;;;;;15.30;99.90;;;;;;5073645;28;19934;-83
2023/06/11 03:43:56;;;;;;;;;;;15.30;99.90;;;;;;5074160;28;19908;-82
2023/06/11 03:46:23;;;;;;;;;;;15.30;99.90;;;;;;5074194;28;20386;-82
2023/06/11 03:48:48;;;;;;;;;;;15.30;99.90;;;;;;5074065;28;19950;-82
2023/06/11 03:51:30;;;;;;;;;;;15.30;99.90;;;;;;5073387;28;19939;-82
2023/06/11 03:53:55;;;;;;;;;;;15.30;99.90;;;;;;5073882;28;19919;-82
2023/06/11 03:56:21;;;;;;;;;;;15.30;99.90;;;;;;5073330;28;20283;-82
2023/06/11 03:58:46;;;;;;;;;;;15.40;99.90;;;;;;5073336;28;19944;-82
2023/06/11 04:01:13;;;;;;;;;;;15.30;99.90;;;;;;5056298;28;19913;-82
2023/06/11 04:03:39;;;;;;;;;;;15.40;99.90;;;;;;5070930;28;20360;-82
2023/06/11 04:06:08;;;;;;;;;;;15.40;99.90;;;;;;5078522;28;20359;-82
2023/06/11 04:08:34;;;;;;;;;;;15.50;99.90;;;;;;5073965;28;20001;-82
2023/06/11 04:11:00;;;;;;;;;;;15.50;99.90;;;;;;5057388;28;19992;-82
2023/06/11 04:13:26;;;;;;;;;;;15.60;99.90;;;;;;5073749;28;19961;-82
2023/06/11 04:15:52;;;;;;;;;;;15.70;99.90;;;;;;5057036;28;20407;-82
2023/06/11 04:18:17;;;;;;;;;;;15.80;99.90;;;;;;5073020;28;19958;-82
2023/06/11 04:20:43;;;;;;;;;;;15.90;99.90;;;;;;5055525;28;19908;-82
2023/06/11 04:23:10;;;;;;;;;;;15.90;99.90;;;;;;5073279;28;19904;-82
2023/06/11 04:25:39;;;;;;;;;;;16.00;99.90;;;;;;5056894;28;19977;-82
2023/06/11 04:28:05;;;;;;;;;;;16.00;99.90;;;;;;5073178;28;20386;-83
2023/06/11 04:30:33;;;;;;;;;;;16.10;99.90;;;;;;5072719;28;19916;-82
2023/06/11 04:33:07;;;;;;;;;;;16.10;99.90;;;;;;5073120;28;19973;-82
2023/06/11 04:35:34;;;;;;;;;;;16.20;99.90;;;;;;5057106;28;20386;-82
2023/06/11 04:38:02;;;;;;;;;;;16.20;99.90;;;;;;5073015;28;20356;-82
2023/06/11 04:41:06;;;;;;;;;;;16.30;99.90;;;;;;5055955;28;20324;-82
2023/06/11 04:43:39;;;;;;;;;;;16.30;99.90;;;;;;5056078;28;20648;-82
2023/06/11 04:46:06;;;;;;;;;;;16.40;99.90;;;;;;5056410;28;19919;-83
2023/06/11 04:48:32;;;;;;;;;;;16.50;99.90;;;;;;5056014;28;19912;-82
2023/06/11 04:51:00;;;;;;;;;;;16.50;99.90;;;;;;5072585;28;19912;-82
2023/06/11 04:53:29;;;;;;;;;;;16.60;99.90;;;;;;5055087;28;20376;-82
2023/06/11 04:55:56;;;;;;;;;;;16.60;99.90;;;;;;5072361;28;19935;-82
2023/06/11 04:58:23;;;;;;;;;;;16.60;99.90;;;;;;5055949;28;19947;-83
2023/06/11 05:00:50;;;;;;;;;;;16.70;99.90;;;;;;5055881;28;19914;-82
2023/06/11 05:03:18;;;;;;;;;;;16.80;99.90;;;;;;5055497;28;19905;-82
2023/06/11 05:05:57;;;;;;;;;;;16.80;99.90;;;;;;5067425;28;19912;-82
2023/06/11 05:08:25;;;;;;;;;;;16.90;99.90;;;;;;5069892;28;19908;-82
2023/06/11 05:10:52;;;;;;;;;;;16.90;99.90;;;;;;5072320;28;20008;-82
2023/06/11 05:13:24;;;;;;;;;;;17.00;99.90;;;;;;5072546;28;19916;-82
2023/06/11 05:16:08;;;;;;;;;;;17.10;99.90;;;;;;5072365;28;19955;-82
2023/06/11 05:18:35;;;;;;;;;;;17.20;99.90;;;;;;5072620;28;20362;-82
2023/06/11 05:21:03;;;;;;;;;;;17.20;99.90;;;;;;5066650;28;19923;-82
2023/06/11 05:23:31;;;;;;;;;;;17.30;99.90;;;;;;5063537;28;20015;-83
2023/06/11 05:26:11;;;;;;;;;;;17.30;99.90;;;;;;5054868;28;19915;-82
2023/06/11 05:28:39;;;;;;;;;;;17.40;99.90;;;;;;5072768;28;20525;-82
2023/06/11 05:31:09;;;;;;;;;;;17.50;99.90;;;;;;5084284;28;19995;-83
2023/06/11 05:33:36;;;;;;;;;;;17.60;99.90;;;;;;5066694;28;19909;-82
2023/06/11 05:36:02;;;;;;;;;;;17.60;99.90;;;;;;5049118;28;19943;-81
2023/06/11 05:38:28;;;;;;;;;;;17.70;99.90;;;;;;5063740;28;19912;-82
2023/06/11 05:40:56;;;;;;;;;;;17.80;99.90;;;;;;5051694;28;20008;-82
2023/06/11 05:43:23;;;;;;;;;;;17.90;99.90;;;;;;5058417;28;19909;-83
2023/06/11 05:45:50;;;;;;;;;;;17.90;99.90;;;;;;5048930;28;20018;-83
2023/06/11 05:48:18;;;;;;;;;;;18.00;99.90;;;;;;5040562;28;19927;-82
2023/06/11 05:50:47;;;;;;;;;;;18.10;99.90;;;;;;5064001;28;19912;-82
2023/06/11 05:53:12;;;;;;;;;;;18.20;99.90;;;;;;5062093;28;19965;-82
2023/06/11 05:55:40;;;;;;;;;;;18.20;99.90;;;;;;5060045;28;19931;-82
2023/06/11 05:58:08;;;;;;;;;;;18.30;99.90;;;;;;5062815;28;19908;-82
2023/06/11 06:00:34;;;;;;;;;;;18.40;99.90;;;;;;5067984;28;20335;-83
2023/06/11 06:03:01;;;;;;;;;;;18.40;99.90;;;;;;5050101;28;20287;-82
2023/06/11 06:05:30;;;;;;;;;;;18.50;99.90;;;;;;5061724;28;19912;-81
2023/06/11 06:07:56;;;;;;;;;;;18.50;99.90;;;;;;5071951;28;19957;-82
2023/06/11 06:10:22;;;;;;;;;;;18.70;99.90;;;;;;5079087;28;19916;-80
2023/06/11 06:12:48;;;;;;;;;;;18.70;99.90;;;;;;5061837;28;20389;-81
2023/06/11 06:15:14;;;;;;;;;;;18.80;99.90;;;;;;5073135;28;19959;-82
2023/06/11 06:17:41;;;;;;;;;;;18.80;99.90;;;;;;5061814;28;19909;-82
2023/06/11 06:20:10;;;;;;;;;;;18.90;99.90;;;;;;5072501;28;19908;-82
2023/06/11 06:22:41;;;;;;;;;;;19.00;99.90;;;;;;5064020;28;19924;-82
2023/06/11 06:25:09;;;;;;;;;;;19.00;99.90;;;;;;5063027;28;20390;-82
2023/06/11 06:27:36;;;;;;;;;;;19.00;99.90;;;;;;5053221;28;19908;-82
2023/06/11 06:30:05;;;;;;;;;;;19.10;99.90;;;;;;5079115;28;20302;-81
2023/06/11 06:32:31;;;;;;;;;;;19.10;99.90;;;;;;5049666;28;19946;-81
2023/06/11 06:34:57;;;;;;;;;;;19.20;99.90;;;;;;5070044;28;20105;-81
2023/06/11 06:37:27;;;;;;;;;;;19.30;99.90;;;;;;5056649;28;19912;-82
2023/06/11 06:39:53;;;;;;;;;;;19.40;99.90;;;;;;5054186;28;19908;-82
2023/06/11 06:42:29;;;;;;;;;;;19.40;99.90;;;;;;5054775;28;19909;-82
2023/06/11 06:44:57;;;;;;;;;;;19.50;99.90;;;;;;5071384;28;19909;-82
2023/06/11 06:47:22;;;;;;;;;;;19.50;99.90;;;;;;5058533;28;19915;-82
2023/06/11 06:49:48;;;;;;;;;;;19.60;99.90;;;;;;5074620;28;19909;-83
2023/06/11 06:52:14;;;;;;;;;;;19.70;99.90;;;;;;5074911;28;19909;-82
2023/06/11 06:54:41;;;;;;;;;;;19.80;99.90;;;;;;5074410;28;19999;-83
2023/06/11 06:57:09;;;;;;;;;;;19.90;99.90;;;;;;5074426;28;20607;-82
2023/06/11 06:59:34;;;;;;;;;;;20.00;99.90;;;;;;5058230;28;19915;-82
2023/06/11 07:02:00;;;;;;;;;;;20.10;99.90;;;;;;5057906;28;20007;-83
2023/06/11 07:04:26;;;;;;;;;;;20.10;99.90;;;;;;5074478;28;19974;-82
2023/06/11 07:06:52;;;;;;;;;;;20.20;99.90;;;;;;5058453;28;20641;-82
2023/06/11 07:09:19;;;;;;;;;;;20.30;99.90;;;;;;5058227;28;20344;-82
2023/06/11 07:11:48;;;;;;;;;;;20.60;99.90;;;;;;5074210;28;20599;-82
2023/06/11 07:14:32;;;;;;;;;;;21.40;99.90;;;;;;5074631;28;19912;-83
2023/06/11 07:16:58;;;;;;;;;;;22.90;99.90;;;;;;5072042;28;19908;-82
2023/06/11 07:19:24;;;;;;;;;;;24.40;99.90;;;;;;5060203;28;19908;-83
2023/06/11 07:21:50;;;;;;;;;;;25.10;99.90;;;;;;5073874;28;19931;-82
2023/06/11 07:24:16;;;;;;;;;;;25.40;99.90;;;;;;5074369;28;19953;-83
2023/06/11 07:26:42;;;;;;;;;;;25.70;99.90;;;;;;5074542;28;19915;-83
2023/06/11 07:29:09;;;;;;;;;;;26.40;99.90;;;;;;5058061;28;20030;-83
2023/06/11 07:31:35;;;;;;;;;;;27.10;99.90;;;;;;5073795;28;19924;-82
2023/06/11 07:34:01;;;;;;;;;;;27.20;99.90;;;;;;5073240;28;20355;-82
2023/06/11 07:36:27;;;;;;;;;;;27.10;99.90;;;;;;5073930;28;19904;-82
2023/06/11 07:38:53;;;;;;;;;;;26.80;99.90;;;;;;5073599;28;20041;-82
2023/06/11 07:41:19;;;;;;;;;;;25.50;99.90;;;;;;5073156;28;19951;-82
2023/06/11 07:43:45;;;;;;;;;;;24.10;99.90;;;;;;5073464;28;20001;-82
2023/06/11 07:46:14;;;;;;;;;;;23.20;99.90;;;;;;5073827;28;20376;-82
2023/06/11 07:48:41;;;;;;;;;;;22.50;99.90;;;;;;5056695;28;19912;-82
2023/06/11 07:54:14;;;;;;;;;;;22.10;99.90;;;;;;5071766;28;19914;-82
2023/06/11 07:56:40;;;;;;;;;;;22.00;99.90;;;;;;5073418;28;19912;-82
2023/06/11 07:59:07;;;;;;;;;;;22.40;99.90;;;;;;5073833;28;19932;-83
2023/06/11 08:01:32;;;;;;;;;;;23.70;99.90;;;;;;5056469;28;20042;-82
2023/06/11 08:03:58;;;;;;;;;;;24.90;99.90;;;;;;5073351;28;19999;-82
2023/06/11 08:06:23;;;;;;;;;;;26.20;99.90;;;;;;5056625;28;20022;-83
2023/06/11 08:08:56;;;;;;;;;;;27.20;99.90;;;;;;5073676;28;19924;-83
2023/06/11 08:11:34;;;;;;;;;;;28.00;98.50;;;;;;5056729;28;19912;-82
2023/06/11 08:14:00;;;;;;;;;;;28.60;96.00;;;;;;5075815;28;20015;-82
2023/06/11 08:16:25;;;;;;;;;;;27.50;96.10;;;;;;5056724;28;20085;-82
2023/06/11 08:18:51;;;;;;;;;;;27.30;95.30;;;;;;5073185;28;20426;-83
2023/06/11 08:21:17;;;;;;;;;;;27.20;94.60;;;;;;5072860;28;19976;-83
2023/06/11 08:23:42;;;;;;;;;;;27.50;95.10;;;;;;5072896;28;19927;-83
2023/06/11 08:26:09;;;;;;;;;;;27.70;94.80;;;;;;5073236;28;19916;-83
2023/06/11 08:28:35;;;;;;;;;;;27.60;94.20;;;;;;5056086;28;19942;-82
2023/06/11 08:31:01;;;;;;;;;;;28.00;93.80;;;;;;5066409;28;19912;-83
2023/06/11 08:33:26;;;;;;;;;;;28.30;92.00;;;;;;5072394;28;19915;-82
2023/06/11 08:38:57;;;;;;;;;;;27.20;91.60;;;;;;5073935;28;19920;-82
2023/06/11 08:41:23;;;;;;;;;;;26.90;91.90;;;;;;5073104;28;19908;-83
2023/06/11 08:43:49;;;;;;;;;;;27.40;92.50;;;;;;5073060;28;19962;-83
2023/06/11 08:46:14;;;;;;;;;;;27.90;92.00;;;;;;5072764;28;19912;-83
2023/06/11 08:49:04;;;;;;;;;;;27.40;91.70;;;;;;5072843;28;20261;-83
2023/06/11 08:51:33;;;;;;;;;;;27.20;91.60;;;;;;5055964;28;20347;-83
2023/06/11 08:53:59;;;;;;;;;;;27.00;90.90;;;;;;5069864;28;20598;-82
2023/06/11 08:56:26;;;;;;;;;;;27.60;91.40;;;;;;5077356;28;19946;-83
2023/06/11 08:58:52;;;;;;;;;;;27.50;91.10;;;;;;5073235;28;19947;-82
2023/06/11 09:01:20;;;;;;;;;;;26.90;90.60;;;;;;5054645;28;20436;-82
2023/06/11 09:03:46;;;;;;;;;;;26.50;88.20;;;;;;5082880;28;19908;-83
2023/06/11 09:06:11;;;;;;;;;;;27.00;89.10;;;;;;5059661;28;20003;-83
2023/06/11 09:09:08;;;;;;;;;;;28.00;90.30;;;;;;5072263;28;20139;-82
2023/06/11 09:11:34;;;;;;;;;;;27.60;87.00;;;;;;5072299;28;20006;-83
2023/06/11 09:14:07;;;;;;;;;;;27.50;90.30;;;;;;5055886;28;19913;-83
2023/06/11 09:16:43;;;;;;;;;;;28.40;90.20;;;;;;5071004;28;19909;-84
2023/06/11 09:19:10;;;;;;;;;;;29.00;84.60;;;;;;5056107;28;19908;-83
2023/06/11 09:21:36;;;;;;;;;;;28.70;83.40;;;;;;5073561;28;19958;-82
2023/06/11 09:24:06;;;;;;;;;;;29.10;81.90;;;;;;5055824;28;20252;-83
2023/06/11 09:26:38;;;;;;;;;;;28.40;78.00;;;;;;5072280;28;19912;-82
2023/06/11 09:29:04;;;;;;;;;;;28.20;81.00;;;;;;5050869;28;20015;-83
2023/06/11 09:31:30;;;;;;;;;;;28.10;81.50;;;;;;5054906;28;19913;-82
2023/06/11 09:34:00;;;;;;;;;;;28.60;79.90;;;;;;5064173;28;19908;-82
2023/06/11 09:36:26;;;;;;;;;;;28.70;79.20;;;;;;5052970;28;19924;-83
2023/06/11 09:38:52;;;;;;;;;;;29.10;78.50;;;;;;5072499;28;19908;-84
2023/06/11 09:44:46;;;;;;;;;;;29.00;74.90;;;;;;5064285;28;19915;-82
2023/06/11 09:47:12;;;;;;;;;;;29.50;75.70;;;;;;5062919;28;19908;-83
2023/06/11 09:49:38;;;;;;;;;;;29.80;76.00;;;;;;5066985;28;19927;-83
2023/06/11 09:52:05;;;;;;;9.13;5.78;;;29.90;74.90;;;;;;5072174;28;20095;-83
2023/06/11 09:54:31;;;;;;;13.95;6.47;;;29.90;74.70;;;;;;5061975;28;20423;-83
2023/06/11 09:57:05;;;;;;;8.88;6.40;;;29.60;75.20;;;;;;5065284;28;20027;-82
2023/06/11 09:59:33;;;;;;;12.25;6.10;;;29.20;74.10;;;;;;5053410;28;20539;-83
2023/06/11 10:02:00;;;;;;;11.25;5.75;;;30.10;73.50;;;;;;5069607;28;20115;-82
2023/06/11 10:04:26;;;;;;;9.25;6.38;;;30.00;69.50;;;;;;5064686;28;20434;-83
2023/06/11 10:06:52;;;;;;;8.45;5.97;;;29.90;69.30;;;;;;5079976;28;20029;-82
2023/06/11 10:09:18;;;;;;;7.93;6.18;;;29.30;69.60;;;;;;5070735;28;20160;-83
2023/06/11 10:11:45;;;;;;;8.15;6.65;;;28.50;69.60;;;;;;5062845;28;20029;-82
2023/06/11 10:14:12;;;;;;;12.00;6.57;;;28.50;71.00;;;;;;5052411;28;20027;-82
2023/06/11 10:16:38;;;;;;;7.22;5.78;;;28.40;71.00;;;;;;5053122;28;20178;-82
2023/06/11 10:19:09;;;;;;;12.57;6.07;;;28.20;71.70;;;;;;5052813;28;20115;-82
2023/06/11 10:21:44;;;;;;;10.32;6.00;;;28.10;71.10;;;;;;5061498;28;20053;-83
2023/06/11 10:24:23;;;;;;;10.70;6.03;;;28.60;70.70;;;;;;5068807;28;20032;-83
2023/06/11 10:27:17;;;;;;;10.43;5.72;;;28.20;69.00;;;;;;5075186;28;20059;-83
2023/06/11 10:29:49;;;;;;;16.42;6.07;;;27.50;70.80;;;;;;5058089;28;20127;-83
2023/06/11 10:32:18;;;;;;;10.93;6.22;;;27.60;71.10;;;;;;5076554;28;20051;-83
2023/06/11 10:35:04;;;;;;;12.07;6.20;;;27.70;69.60;;;;;;5092186;28;20017;-83
2023/06/11 10:37:36;;;;;;;12.88;7.13;;;27.90;69.80;;;;;;5058399;28;20024;-85
2023/06/11 10:40:03;;;;;;;11.13;6.82;;;28.10;66.20;;;;;;5074857;28;20024;-82
2023/06/11 10:42:36;;;;;;;8.27;5.85;;;28.00;68.50;;;;;;5074674;28;20503;-82
2023/06/11 10:45:06;;;;;;;7.47;5.75;;;28.00;70.30;;;;;;5075741;28;20519;-82
2023/06/11 10:48:10;;;;;;;13.43;6.20;;;28.50;69.00;;;;;;5057751;28;20503;-82
2023/06/11 10:50:35;;;;;;;8.27;5.90;;;28.40;68.60;;;;;;5074624;28;20036;-82
2023/06/11 10:53:08;;;;;;;10.18;6.20;;;28.20;65.80;;;;;;5074611;28;20028;-81
2023/06/11 10:55:34;;;;;;;7.70;6.07;;;27.50;69.10;;;;;;5074616;28;20020;-82
2023/06/11 10:58:01;;;;;;;8.38;6.18;;;27.70;68.20;;;;;;5074720;28;20039;-81
2023/06/11 11:00:28;;;;;;;10.85;5.28;;;28.00;67.00;;;;;;5074177;28;20814;-82
2023/06/11 11:02:58;;;;;;;7.65;5.80;;;28.40;66.60;;;;;;5075433;28;20430;-83
2023/06/11 11:05:24;;;;;;;9.45;5.60;;;28.50;66.60;;;;;;5074954;28;20028;-83
2023/06/11 11:07:49;;;;;;;6.43;5.30;;;28.70;67.20;;;;;;5074199;28;20028;-82
2023/06/11 11:10:19;;;;;;;8.45;5.78;;;28.80;66.70;;;;;;5074502;28;20033;-82
2023/06/11 11:12:47;;;;;;;9.20;5.50;;;28.80;64.30;;;;;;5074189;28;20074;-82
2023/06/11 11:15:13;;;;;;;11.20;6.03;;;28.80;64.10;;;;;;5057902;28;20016;-82
2023/06/11 11:17:40;;;;;;;11.07;5.40;;;28.80;62.80;;;;;;5057344;28;20490;-82
2023/06/11 11:20:17;;;;;;;12.30;5.47;;;29.00;64.20;;;;;;5057975;28;20400;-83
2023/06/11 11:22:51;;;;;;;11.27;5.35;;;29.20;62.70;;;;;;5074091;28;20860;-82
2023/06/11 11:25:19;;;;;;;10.98;5.72;;;29.20;61.20;;;;;;5057545;28;20131;-82
2023/06/11 11:27:45;;;;;;;6.32;5.40;;;29.20;60.00;;;;;;5080228;28;20013;-82
2023/06/11 11:30:11;;;;;;;11.13;5.38;;;29.20;60.10;;;;;;5074643;28;20395;-82
2023/06/11 11:32:37;;;;;;;12.02;6.32;;;29.40;59.50;;;;;;5056204;28;20071;-82
2023/06/11 11:35:05;;;;;;;10.77;5.38;;;29.20;59.10;;;;;;5079560;28;20467;-83
2023/06/11 11:37:32;;;;;;;7.80;5.75;;;29.30;59.40;;;;;;5077284;28;20036;-83
2023/06/11 11:40:08;;;;;;;8.00;5.63;;;28.90;60.40;;;;;;5068576;28;20804;-83
2023/06/11 11:42:48;;;;;;;14.60;4.90;;;29.10;58.80;;;;;;5075958;28;20118;-83
2023/06/11 11:45:14;;;;;;;14.77;5.43;;;28.70;58.30;;;;;;5063080;28;20107;-83
2023/06/11 11:47:43;;;;;;;6.18;5.15;;;28.50;59.00;;;;;;5069195;28;20029;-82
2023/06/11 11:50:18;;;;;;;9.23;5.20;;;28.40;58.70;;;;;;5081935;28;20043;-83
2023/06/11 11:52:48;;;;;;;6.78;5.30;;;28.60;59.60;;;;;;5047946;28;20039;-84
2023/06/11 11:55:17;;;;;;;9.32;5.40;;;28.60;58.20;;;;;;5078406;28;20024;-84
2023/06/11 11:57:42;;;;;;;10.38;6.18;;;28.60;60.50;;;;;;5060949;28;20029;-84
2023/06/11 12:00:09;;;;;;;8.75;5.70;;;28.10;59.80;;;;;;5072869;28;20040;-83
2023/06/11 12:02:42;;;;;;;9.43;5.35;;;28.10;59.80;;;;;;5056640;28;20032;-84
2023/06/11 12:05:13;;;;;;;12.52;6.13;;;28.30;60.70;;;;;;5062236;28;20136;-84
2023/06/11 12:07:38;;;;;;;10.45;6.45;;;28.30;61.60;;;;;;5057510;28;20025;-84
2023/06/11 12:10:04;;;;;;;10.00;5.97;;;28.30;61.70;;;;;;5062182;28;20063;-83
2023/06/11 12:12:30;;;;;;;8.23;6.03;;;28.50;60.30;;;;;;5075962;28;20029;-84
2023/06/11 12:14:56;;;;;;;11.00;5.93;;;28.60;61.80;;;;;;5060642;28;20096;-83
2023/06/11 12:17:21;;;;;;;8.50;5.70;;;28.90;60.10;;;;;;5076863;28;20055;-84
2023/06/11 12:19:47;;;;;;;8.27;6.43;;;29.60;60.70;;;;;;5078318;28;20395;-84
2023/06/11 12:22:13;;;;;;;7.63;5.53;;;30.00;60.40;;;;;;5070277;28;20023;-83
2023/06/11 12:24:39;;;;;;;12.23;6.15;;;30.00;59.20;;;;;;5074308;28;20035;-84
2023/06/11 12:27:06;;;;;;;7.82;5.53;;;30.30;58.30;;;;;;5051400;28;20047;-84
2023/06/11 12:29:32;;;;;;;8.80;6.07;;;30.80;58.40;;;;;;5066929;28;20024;-84
2023/06/11 12:31:58;;;;;;;11.20;5.85;;;30.30;57.80;;;;;;5056175;28;20101;-84
2023/06/11 12:34:23;;;;;;;10.23;5.43;;;30.00;58.70;;;;;;5077227;28;20460;-84
2023/06/11 12:36:51;;;;;;;8.48;5.55;;;30.60;58.70;;;;;;5078734;28;20028;-84
2023/06/11 12:39:16;;;;;;;7.28;5.57;;;31.30;58.50;;;;;;5073050;28;20021;-84
2023/06/11 12:41:42;;;;;;;8.38;5.68;;;30.80;58.10;;;;;;5072772;28;20062;-85
2023/06/11 12:44:08;;;;;;;11.05;5.90;;;31.20;57.70;;;;;;5068207;28;20045;-84
2023/06/11 12:46:36;;;;;;;6.13;5.28;;;31.10;58.10;;;;;;5078654;28;20123;-84
2023/06/11 12:49:02;;;;;;;6.72;5.80;;;31.60;56.60;;;;;;5067279;28;20032;-84
2023/06/11 12:51:28;;;;;;;10.55;5.95;;;32.10;55.70;;;;;;5072191;28;20040;-84
2023/06/11 12:53:53;;;;;;;6.10;5.50;;;31.30;55.10;;;;;;5059902;28;20065;-84
2023/06/11 12:56:22;;;;;;;7.57;5.53;;;30.80;55.30;;;;;;5068133;28;20553;-84
2023/06/11 12:58:49;;;;;;;9.15;5.65;;;30.30;56.40;;;;;;5072865;28;20069;-84
2023/06/11 13:01:15;;;;;;;10.35;6.05;;;30.40;57.30;;;;;;5081230;28;20118;-84
2023/06/11 13:03:41;;;;;;;10.20;5.53;;;31.20;57.10;;;;;;5079651;28;20185;-84
2023/06/11 13:06:28;;;;;;;8.70;5.00;;;31.40;56.80;;;;;;5067725;28;20082;-84
2023/06/11 13:08:54;;;;;;;7.95;6.22;;;30.60;56.30;;;;;;5076350;28;20035;-83
2023/06/11 13:11:20;;;;;;;7.20;5.82;;;30.70;56.60;;;;;;5087276;28;20028;-84
2023/06/11 13:13:46;;;;;;;6.57;5.32;;;31.10;56.90;;;;;;5081323;28;20762;-84
2023/06/11 13:16:40;;;;;;;6.85;5.80;;;31.30;55.30;;;;;;5068364;28;20028;-84
2023/06/11 13:19:05;;;;;;;12.27;6.00;;;31.70;54.60;;;;;;5052836;28;20588;-84
2023/06/11 13:21:31;;;;;;;10.70;5.65;;;31.80;54.90;;;;;;5045497;28;20025;-84
2023/06/11 13:23:57;;;;;;;11.07;5.63;;;31.70;55.40;;;;;;5091275;28;20044;-84
2023/06/11 13:26:23;;;;;;;9.02;5.90;;;31.80;54.80;;;;;;5059166;28;20029;-84
2023/06/11 13:28:50;;;;;;;9.13;5.38;;;32.00;56.50;;;;;;5087963;28;20045;-84
2023/06/11 13:31:17;;;;;;;9.90;5.72;;;31.80;56.90;;;;;;5062593;28;20031;-84
2023/06/11 13:33:43;;;;;;;10.30;5.85;;;31.60;54.90;;;;;;5079584;28;20590;-84
2023/06/11 13:36:09;;;;;;;9.98;5.70;;;31.40;54.80;;;;;;5077329;28;20111;-84
2023/06/11 13:38:40;;;;;;;5.60;5.00;;;31.50;54.20;;;;;;5065698;28;20025;-84
2023/06/11 13:41:06;;;;;;;13.75;6.07;;;31.80;55.80;;;;;;5089599;28;20423;-84
2023/06/11 13:43:32;;;;;;;11.48;5.82;;;32.50;54.50;;;;;;5045303;28;20028;-84
2023/06/11 13:45:58;;;;;;;9.40;6.28;;;32.70;55.00;;;;;;5076603;28;20484;-84
2023/06/11 13:48:24;;;;;;;9.15;5.40;;;32.30;53.80;;;;;;5043758;28;20052;-84
2023/06/11 13:50:50;;;;;;;10.73;5.93;;;31.50;54.40;;;;;;5072814;28;20044;-84
2023/06/11 13:53:18;;;;;;;6.78;5.53;;;31.40;54.00;;;;;;5063891;28;20020;-81
2023/06/11 13:55:47;;;;;;;7.55;5.53;;;31.80;54.40;;;;;;5056613;28;20024;-82
2023/06/11 13:58:17;;;;;;;6.68;5.60;;;32.30;54.10;;;;;;5081056;28;20375;-84
2023/06/11 14:00:43;;;;;;;6.95;5.32;;;31.60;54.70;;;;;;5053807;28;20361;-84
2023/06/11 14:03:09;;;;;;;8.13;5.53;;;31.80;55.10;;;;;;5076388;28;20111;-84
2023/06/11 14:05:35;;;;;;;9.38;6.47;;;31.00;53.60;;;;;;5078362;28;20056;-84